createdAt,value
2018-06-08T00:01:39.909Z,0.00
2018-06-08T00:02:39.684Z,0.00
2018-06-08T00:03:39.863Z,0.00
2018-06-08T00:04:39.646Z,0.00
2018-06-08T00:05:39.617Z,0.00
2018-06-08T00:06:39.595Z,0.00
2018-06-08T00:07:39.574Z,0.00
2018-06-08T00:08:39.554Z,0.00
2018-06-08T00:09:39.530Z,0.00
2018-06-08T00:10:39.508Z,0.00
2018-06-08T00:11:39.488Z,0.00
2018-06-08T00:12:39.464Z,0.00
2018-06-08T00:13:39.443Z,0.00
2018-06-08T00:14:39.425Z,0.00
2018-06-08T00:15:39.398Z,0.00
2018-06-08T00:16:39.375Z,0.00
2018-06-08T00:17:39.358Z,0.00
2018-06-08T00:18:39.332Z,0.00
2018-06-08T00:19:39.311Z,0.00
2018-06-08T00:20:39.289Z,0.00
2018-06-08T00:21:39.272Z,0.00
2018-06-08T00:22:39.245Z,0.00
2018-06-08T00:23:39.227Z,0.00
2018-06-08T00:24:39.201Z,0.00
2018-06-08T00:25:39.180Z,0.00
2018-06-08T00:26:39.161Z,0.00
2018-06-08T00:27:39.136Z,0.00
2018-06-08T00:28:39.114Z,0.00
2018-06-08T00:29:39.092Z,0.00
2018-06-08T00:30:39.272Z,0.00
2018-06-08T00:31:39.047Z,0.00
2018-06-08T00:32:39.025Z,0.00
2018-06-08T00:33:39.004Z,0.00
2018-06-08T00:34:38.985Z,0.00
2018-06-08T00:35:38.960Z,0.00
2018-06-08T00:36:38.954Z,0.00
2018-06-08T00:37:38.918Z,0.00
2018-06-08T00:38:38.892Z,0.00
2018-06-08T00:39:38.872Z,0.00
2018-06-08T00:40:38.848Z,0.00
2018-06-08T00:41:38.834Z,0.00
2018-06-08T00:42:38.807Z,0.00
2018-06-08T00:43:38.783Z,0.00
2018-06-08T00:44:38.762Z,0.00
2018-06-08T00:45:38.740Z,0.00
2018-06-08T00:46:38.720Z,0.00
2018-06-08T00:47:38.726Z,0.00
2018-06-08T00:48:38.673Z,0.00
2018-06-08T00:49:38.654Z,0.00
2018-06-08T00:50:38.630Z,0.00
2018-06-08T00:51:38.609Z,0.00
2018-06-08T00:52:38.587Z,0.00
2018-06-08T00:53:38.775Z,0.00
2018-06-08T00:54:38.745Z,0.00
2018-06-08T00:55:38.523Z,0.00
2018-06-08T00:56:38.499Z,0.00
2018-06-08T00:57:38.477Z,0.00
2018-06-08T00:59:20.808Z,0.00
2018-06-08T01:00:20.584Z,0.00
2018-06-08T01:01:20.561Z,0.00
2018-06-08T01:02:20.540Z,0.00
2018-06-08T01:03:20.517Z,0.00
2018-06-08T01:04:20.507Z,0.00
2018-06-08T01:05:20.473Z,0.00
2018-06-08T01:06:20.451Z,0.00
2018-06-08T01:07:20.438Z,0.00
2018-06-08T01:08:20.407Z,0.00
2018-06-08T01:09:20.385Z,0.00
2018-06-08T01:10:20.363Z,0.00
2018-06-08T01:11:20.342Z,0.00
2018-06-08T01:12:20.322Z,0.00
2018-06-08T01:13:20.296Z,0.00
2018-06-08T01:14:20.274Z,0.00
2018-06-08T01:15:20.252Z,0.00
2018-06-08T01:16:20.229Z,0.00
2018-06-08T01:17:20.208Z,0.00
2018-06-08T01:18:20.186Z,0.00
2018-06-08T01:19:20.173Z,0.00
2018-06-08T01:20:20.140Z,0.00
2018-06-08T01:21:20.120Z,0.00
2018-06-08T01:22:20.097Z,0.00
2018-06-08T01:23:20.075Z,0.00
2018-06-08T01:24:20.054Z,0.00
2018-06-08T01:25:20.029Z,0.00
2018-06-08T01:26:20.008Z,0.00
2018-06-08T01:27:19.984Z,0.00
2018-06-08T01:28:19.962Z,0.00
2018-06-08T01:29:19.940Z,0.00
2018-06-08T01:30:19.918Z,0.00
2018-06-08T01:31:19.898Z,0.00
2018-06-08T01:32:19.874Z,0.00
2018-06-08T01:33:19.857Z,0.00
2018-06-08T01:34:19.831Z,0.00
2018-06-08T01:35:19.809Z,0.00
2018-06-08T01:36:19.784Z,0.00
2018-06-08T01:37:19.764Z,0.00
2018-06-08T01:38:19.742Z,0.00
2018-06-08T01:39:19.723Z,0.00
2018-06-08T01:40:19.695Z,0.00
2018-06-08T01:41:19.672Z,0.00
2018-06-08T01:42:19.655Z,0.00
2018-06-08T01:43:19.630Z,0.00
2018-06-08T01:44:19.606Z,0.00
2018-06-08T01:45:19.591Z,0.00
2018-06-08T01:46:19.565Z,0.00
2018-06-08T01:47:19.541Z,0.00
2018-06-08T01:48:19.522Z,0.00
2018-06-08T01:49:19.495Z,0.00
2018-06-08T01:50:19.477Z,0.00
2018-06-08T01:51:19.452Z,0.00
2018-06-08T01:52:19.428Z,0.00
2018-06-08T01:53:19.411Z,0.00
2018-06-08T01:54:19.384Z,0.00
2018-06-08T01:55:19.362Z,0.00
2018-06-08T01:56:19.345Z,0.00
2018-06-08T01:57:19.316Z,4.00
2018-06-08T01:58:19.294Z,4.00
2018-06-08T01:59:19.272Z,4.00
2018-06-08T02:00:19.252Z,4.00
2018-06-08T02:01:19.249Z,0.00
2018-06-08T02:02:19.205Z,4.00
2018-06-08T02:03:19.183Z,4.00
2018-06-08T02:04:19.159Z,4.00
2018-06-08T02:05:19.137Z,8.00
2018-06-08T02:06:19.117Z,4.00
2018-06-08T02:07:19.101Z,4.00
2018-06-08T02:08:19.072Z,8.00
2018-06-08T02:09:19.050Z,8.00
2018-06-08T02:10:19.056Z,8.00
2018-06-08T02:11:19.001Z,8.00
2018-06-08T02:12:18.980Z,8.00
2018-06-08T02:13:18.959Z,8.00
2018-06-08T02:14:18.933Z,8.00
2018-06-08T02:15:18.926Z,12.00
2018-06-08T02:16:19.091Z,16.00
2018-06-08T02:17:18.866Z,16.00
2018-06-08T02:18:18.844Z,20.00
2018-06-08T02:19:19.021Z,20.00
2018-06-08T02:20:18.799Z,24.00
2018-06-08T02:21:18.776Z,24.00
2018-06-08T02:22:18.755Z,32.00
2018-06-08T02:23:18.731Z,32.00
2018-06-08T02:24:18.708Z,36.00
2018-06-08T02:25:18.687Z,40.00
2018-06-08T02:26:18.688Z,48.00
2018-06-08T02:27:18.642Z,48.00
2018-06-08T02:28:18.616Z,56.00
2018-06-08T02:29:18.595Z,64.00
2018-06-08T02:30:18.572Z,68.00
2018-06-08T02:31:18.607Z,76.00
2018-06-08T02:32:18.729Z,84.00
2018-06-08T02:33:18.706Z,96.00
2018-06-08T02:34:18.684Z,104.00
2018-06-08T02:35:18.459Z,116.00
2018-06-08T02:36:18.436Z,124.00
2018-06-08T02:37:18.414Z,136.00
2018-06-08T02:38:18.420Z,148.00
2018-06-08T02:39:18.371Z,164.00
2018-06-08T02:40:18.353Z,176.00
2018-06-08T02:41:18.325Z,192.00
2018-06-08T02:42:18.301Z,212.00
2018-06-08T02:43:18.480Z,224.00
2018-06-08T02:44:18.460Z,248.00
2018-06-08T02:45:18.231Z,272.00
2018-06-08T02:46:18.208Z,296.00
2018-06-08T02:47:18.186Z,320.00
2018-06-08T02:48:18.167Z,348.00
2018-06-08T02:49:18.140Z,376.00
2018-06-08T02:50:18.118Z,408.00
2018-06-08T02:51:18.095Z,436.00
2018-06-08T02:52:18.071Z,468.00
2018-06-08T02:53:18.051Z,500.00
2018-06-08T02:54:18.030Z,536.00
2018-06-08T02:55:18.005Z,572.00
2018-06-08T02:56:17.982Z,608.00
2018-06-08T02:57:17.961Z,648.00
2018-06-08T02:58:17.942Z,688.00
2018-06-08T02:59:17.914Z,728.00
2018-06-08T03:00:17.897Z,768.00
2018-06-08T03:01:17.866Z,808.00
2018-06-08T03:02:17.843Z,852.00
2018-06-08T03:03:17.823Z,900.00
2018-06-08T03:04:17.798Z,944.00
2018-06-08T03:05:17.792Z,988.00
2018-06-08T03:06:17.753Z,1036.00
2018-06-08T03:07:17.729Z,1080.00
2018-06-08T03:08:17.706Z,1128.00
2018-06-08T03:09:17.684Z,1172.00
2018-06-08T03:10:17.662Z,1216.00
2018-06-08T03:11:17.638Z,1264.00
2018-06-08T03:12:17.618Z,1308.00
2018-06-08T03:13:17.593Z,1356.00
2018-06-08T03:14:17.571Z,1416.00
2018-06-08T03:15:17.550Z,1472.00
2018-06-08T03:16:17.525Z,1536.00
2018-06-08T03:17:17.500Z,1596.00
2018-06-08T03:18:17.479Z,1660.00
2018-06-08T03:19:17.455Z,1720.00
2018-06-08T03:20:17.839Z,1768.00
2018-06-08T03:21:17.413Z,1812.00
2018-06-08T03:22:17.390Z,1864.00
2018-06-08T03:23:17.363Z,1920.00
2018-06-08T03:24:17.341Z,1984.00
2018-06-08T03:25:17.371Z,2064.00
2018-06-08T03:26:17.294Z,2140.00
2018-06-08T03:27:17.270Z,2224.00
2018-06-08T03:28:17.248Z,2316.00
2018-06-08T03:29:17.225Z,2448.00
2018-06-08T03:30:17.203Z,2580.00
2018-06-08T03:31:17.180Z,2688.00
2018-06-08T03:32:17.159Z,2812.00
2018-06-08T03:33:17.135Z,2936.00
2018-06-08T03:34:17.111Z,3048.00
2018-06-08T03:35:17.088Z,3160.00
2018-06-08T03:36:17.565Z,3276.00
2018-06-08T03:37:17.042Z,3416.00
2018-06-08T03:38:17.019Z,3556.00
2018-06-08T03:39:17.000Z,3676.00
2018-06-08T03:40:16.973Z,3796.00
2018-06-08T03:41:16.952Z,3940.00
2018-06-08T03:42:16.929Z,4128.00
2018-06-08T03:43:16.906Z,4300.00
2018-06-08T03:44:16.883Z,4464.00
2018-06-08T03:45:16.860Z,4628.00
2018-06-08T03:46:16.837Z,4740.00
2018-06-08T03:47:16.818Z,4968.00
2018-06-08T03:48:16.794Z,5100.00
2018-06-08T03:49:16.768Z,5192.00
2018-06-08T03:50:16.747Z,5344.00
2018-06-08T03:51:16.725Z,5488.00
2018-06-08T03:52:16.701Z,5616.00
2018-06-08T03:53:16.680Z,5824.00
2018-06-08T03:54:16.657Z,6080.00
2018-06-08T03:55:16.638Z,6196.00
2018-06-08T03:56:16.612Z,6232.00
2018-06-08T03:57:16.593Z,6416.00
2018-06-08T03:58:16.568Z,6820.00
2018-06-08T03:59:16.545Z,7112.00
2018-06-08T04:00:16.521Z,7160.00
2018-06-08T04:01:16.500Z,7084.00
2018-06-08T04:02:16.478Z,6768.00
2018-06-08T04:03:16.457Z,7036.00
2018-06-08T04:04:16.432Z,7312.00
2018-06-08T04:05:16.417Z,7096.00
2018-06-08T04:06:16.389Z,7072.00
2018-06-08T04:07:16.367Z,6916.00
2018-06-08T04:08:16.348Z,6988.00
2018-06-08T04:09:16.323Z,7844.00
2018-06-08T04:10:16.301Z,7960.00
2018-06-08T04:11:16.279Z,8124.00
2018-06-08T04:12:16.258Z,7688.00
2018-06-08T04:13:16.235Z,7788.00
2018-06-08T04:14:16.212Z,7980.00
2018-06-08T04:15:16.191Z,8328.00
2018-06-08T04:16:16.368Z,8976.00
2018-06-08T04:17:16.147Z,10064.00
2018-06-08T04:18:16.125Z,10300.00
2018-06-08T04:19:16.103Z,10452.00
2018-06-08T04:20:16.081Z,10652.00
2018-06-08T04:21:16.059Z,10240.00
2018-06-08T04:22:16.042Z,9592.00
2018-06-08T04:23:16.016Z,9276.00
2018-06-08T04:24:15.998Z,9432.00
2018-06-08T04:25:15.972Z,9060.00
2018-06-08T04:26:15.951Z,10860.00
2018-06-08T04:27:15.929Z,10636.00
2018-06-08T04:28:15.907Z,11176.00
2018-06-08T04:29:15.886Z,9120.00
2018-06-08T04:30:15.864Z,9168.00
2018-06-08T04:31:15.843Z,9304.00
2018-06-08T04:32:15.821Z,9560.00
2018-06-08T04:33:15.800Z,10012.00
2018-06-08T04:34:15.779Z,10120.00
2018-06-08T04:35:15.757Z,10356.00
2018-06-08T04:36:15.741Z,10708.00
2018-06-08T04:37:15.718Z,10692.00
2018-06-08T04:38:15.694Z,10852.00
2018-06-08T04:39:15.673Z,14080.00
2018-06-08T04:40:15.654Z,14500.00
2018-06-08T04:41:15.629Z,16032.00
2018-06-08T04:42:15.608Z,14284.00
2018-06-08T04:43:15.587Z,14384.00
2018-06-08T04:44:15.565Z,14844.00
2018-06-08T04:45:15.544Z,14076.00
2018-06-08T04:46:15.724Z,17632.00
2018-06-08T04:47:15.502Z,16224.00
2018-06-08T04:48:15.480Z,18112.00
2018-06-08T04:49:15.459Z,17952.00
2018-06-08T04:50:15.442Z,18784.00
2018-06-08T04:51:15.418Z,18592.00
2018-06-08T04:52:15.397Z,19232.00
2018-06-08T04:53:15.376Z,19712.00
2018-06-08T04:54:15.354Z,19680.00
2018-06-08T04:55:15.338Z,20032.00
2018-06-08T04:56:15.314Z,20192.00
2018-06-08T04:57:15.294Z,20960.00
2018-06-08T04:58:15.274Z,21184.00
2018-06-08T04:59:15.254Z,21408.00
2018-06-08T05:00:15.233Z,22144.00
2018-06-08T05:01:15.230Z,22880.00
2018-06-08T05:02:15.194Z,22464.00
2018-06-08T05:03:15.174Z,22752.00
2018-06-08T05:04:15.154Z,21728.00
2018-06-08T05:05:15.134Z,23712.00
2018-06-08T05:06:15.119Z,24480.00
2018-06-08T05:07:15.096Z,24576.00
2018-06-08T05:08:15.279Z,24416.00
2018-06-08T05:09:15.056Z,23712.00
2018-06-08T05:10:15.040Z,22336.00
2018-06-08T05:11:15.028Z,22400.00
2018-06-08T05:12:14.997Z,22144.00
2018-06-08T05:13:14.978Z,23456.00
2018-06-08T05:14:14.972Z,18880.00
2018-06-08T05:15:14.940Z,24960.00
2018-06-08T05:16:14.921Z,25728.00
2018-06-08T05:17:14.904Z,26688.00
2018-06-08T05:18:14.900Z,26496.00
2018-06-08T05:19:14.863Z,26816.00
2018-06-08T05:20:14.847Z,26752.00
2018-06-08T05:21:14.825Z,27008.00
2018-06-08T05:22:14.813Z,27168.00
2018-06-08T05:23:14.788Z,27328.00
2018-06-08T05:24:14.768Z,26304.00
2018-06-08T05:25:16.165Z,27712.00
2018-06-08T05:26:14.737Z,28544.00
2018-06-08T05:27:14.713Z,28480.00
2018-06-08T05:28:14.896Z,28192.00
2018-06-08T05:29:14.881Z,27584.00
2018-06-08T05:30:14.860Z,28384.00
2018-06-08T05:31:14.844Z,30048.00
2018-06-08T05:32:14.822Z,30784.00
2018-06-08T05:33:14.602Z,31008.00
2018-06-08T05:34:14.584Z,31456.00
2018-06-08T05:35:14.567Z,31392.00
2018-06-08T05:36:14.854Z,32032.00
2018-06-08T05:37:14.548Z,33184.00
2018-06-08T05:38:14.716Z,33120.00
2018-06-08T05:39:14.494Z,30944.00
2018-06-08T05:40:14.474Z,27872.00
2018-06-08T05:41:14.457Z,23040.00
2018-06-08T05:42:14.440Z,31552.00
2018-06-08T05:43:14.423Z,32416.00
2018-06-08T05:44:14.403Z,33408.00
2018-06-08T05:45:14.384Z,33056.00
2018-06-08T05:46:14.570Z,33824.00
2018-06-08T05:47:14.553Z,32320.00
2018-06-08T05:48:14.608Z,32992.00
2018-06-08T05:49:14.522Z,34016.00
2018-06-08T05:50:14.503Z,36736.00
2018-06-08T05:51:14.485Z,35584.00
2018-06-08T05:52:14.264Z,36864.00
2018-06-08T05:53:14.447Z,36704.00
2018-06-08T05:54:14.241Z,37056.00
2018-06-08T05:55:56.571Z,37568.00
2018-06-08T05:56:56.352Z,37056.00
2018-06-08T05:57:56.333Z,36480.00
2018-06-08T05:58:56.525Z,34240.00
2018-06-08T05:59:56.706Z,35232.00
2018-06-08T06:00:56.284Z,35232.00
2018-06-08T06:01:56.470Z,36256.00
2018-06-08T06:02:56.256Z,35136.00
2018-06-08T06:03:56.439Z,33568.00
2018-06-08T06:04:56.420Z,34432.00
2018-06-08T06:05:56.405Z,34656.00
2018-06-08T06:06:56.393Z,36032.00
2018-06-08T06:07:56.375Z,35488.00
2018-06-08T06:08:56.354Z,35936.00
2018-06-08T06:09:56.136Z,36512.00
2018-06-08T06:11:38.484Z,35008.00
2018-06-08T06:12:38.465Z,34272.00
2018-06-08T06:13:38.248Z,32640.00
2018-06-08T06:14:38.233Z,32192.00
2018-06-08T06:15:38.215Z,31520.00
2018-06-08T06:17:20.559Z,29184.00
2018-06-08T06:18:20.341Z,28736.00
2018-06-08T06:19:20.326Z,28224.00
2018-06-08T06:20:20.311Z,27552.00
2018-06-08T06:21:20.295Z,27104.00
2018-06-08T06:22:20.482Z,26880.00
2018-06-08T06:23:20.265Z,26592.00
2018-06-08T06:24:20.249Z,26272.00
2018-06-08T06:25:20.238Z,27488.00
2018-06-08T06:26:20.220Z,34400.00
2018-06-08T06:27:20.206Z,40096.00
2018-06-08T06:28:20.189Z,42720.00
2018-06-08T06:29:20.176Z,40768.00
2018-06-08T06:30:20.160Z,40544.00
2018-06-08T06:31:20.148Z,40800.00
2018-06-08T06:32:20.164Z,42784.00
2018-06-08T06:33:20.117Z,45152.00
2018-06-08T06:34:20.106Z,46432.00
2018-06-08T06:35:20.088Z,48288.00
2018-06-08T06:36:20.277Z,49440.00
2018-06-08T06:37:20.261Z,49088.00
2018-06-08T06:38:22.868Z,50656.00
2018-06-08T06:39:20.236Z,50720.00
2018-06-08T06:40:20.018Z,49984.00
2018-06-08T06:41:20.010Z,52640.00
2018-06-08T06:42:19.990Z,51872.00
2018-06-08T06:43:19.976Z,52608.00
2018-06-08T06:44:20.164Z,53728.00
2018-06-08T06:45:19.947Z,52800.00
2018-06-08T06:46:20.134Z,53824.00
2018-06-08T06:47:19.925Z,55072.00
2018-06-08T06:48:19.905Z,53888.00
2018-06-08T06:49:19.893Z,52416.00
2018-06-08T06:50:19.878Z,53792.00
2018-06-08T06:51:20.113Z,54912.00
2018-06-08T06:52:20.058Z,55936.00
2018-06-08T06:53:19.842Z,58176.00
2018-06-08T06:54:19.826Z,57728.00
2018-06-08T06:55:19.818Z,57088.00
2018-06-08T06:56:19.798Z,56736.00
2018-06-08T06:57:19.786Z,57440.00
2018-06-08T06:58:19.772Z,57120.00
2018-06-08T06:59:19.760Z,58304.00
2018-06-08T07:00:19.746Z,57152.00
2018-06-08T07:01:19.733Z,57248.00
2018-06-08T07:02:19.924Z,60384.00
2018-06-08T07:03:19.707Z,62560.00
2018-06-08T07:04:19.736Z,63232.00
2018-06-08T07:05:19.684Z,63392.00
2018-06-08T07:06:19.669Z,64992.00
2018-06-08T07:07:19.859Z,65504.00
2018-06-08T07:08:19.849Z,64544.00
2018-06-08T07:09:19.837Z,61984.00
2018-06-08T07:10:19.619Z,63264.00
2018-06-08T07:11:19.608Z,65792.00
2018-06-08T07:12:19.594Z,66656.00
2018-06-08T07:13:19.587Z,69120.00
2018-06-08T07:14:19.573Z,67936.00
2018-06-08T07:15:19.759Z,67456.00
2018-06-08T07:16:19.547Z,67936.00
2018-06-08T07:17:19.533Z,71904.00
2018-06-08T07:18:19.723Z,71264.00
2018-06-08T07:19:19.511Z,71200.00
2018-06-08T07:20:19.705Z,73184.00
2018-06-08T07:21:19.690Z,69856.00
2018-06-08T07:22:19.677Z,67520.00
2018-06-08T07:23:19.461Z,70368.00
2018-06-08T07:24:19.654Z,75040.00
2018-06-08T07:25:19.640Z,73824.00
2018-06-08T07:26:19.627Z,72864.00
2018-06-08T07:27:19.414Z,71776.00
2018-06-08T07:28:19.604Z,74496.00
2018-06-08T07:29:19.391Z,76960.00
2018-06-08T07:30:19.377Z,78656.00
2018-06-08T07:31:19.366Z,78208.00
2018-06-08T07:32:19.354Z,75744.00
2018-06-08T07:33:19.344Z,74816.00
2018-06-08T07:34:19.331Z,79744.00
2018-06-08T07:35:19.318Z,78048.00
2018-06-08T07:36:19.306Z,74336.00
2018-06-08T07:37:19.293Z,75808.00
2018-06-08T07:38:19.282Z,75808.00
2018-06-08T07:39:19.273Z,76224.00
2018-06-08T07:40:19.272Z,79200.00
2018-06-08T07:41:19.308Z,82144.00
2018-06-08T07:42:19.283Z,83520.00
2018-06-08T07:43:19.223Z,81056.00
2018-06-08T07:44:19.209Z,78336.00
2018-06-08T07:45:19.196Z,78208.00
2018-06-08T07:46:19.183Z,81024.00
2018-06-08T07:47:19.174Z,79648.00
2018-06-08T07:48:19.159Z,79232.00
2018-06-08T07:49:19.147Z,79712.00
2018-06-08T07:50:19.134Z,79648.00
2018-06-08T07:51:19.122Z,78944.00
2018-06-08T07:52:19.110Z,79648.00
2018-06-08T07:53:19.107Z,79744.00
2018-06-08T07:54:19.286Z,81312.00
2018-06-08T07:55:19.075Z,76704.00
2018-06-08T07:56:19.061Z,69376.00
2018-06-08T07:57:19.049Z,70208.00
2018-06-08T07:58:19.039Z,71104.00
2018-06-08T07:59:19.029Z,71168.00
2018-06-08T08:00:19.012Z,71744.00
2018-06-08T08:01:19.000Z,69728.00
2018-06-08T08:02:18.988Z,73696.00
2018-06-08T08:03:18.976Z,73440.00
2018-06-08T08:04:18.969Z,74720.00
2018-06-08T08:05:18.962Z,77408.00
2018-06-08T08:06:18.940Z,77728.00
2018-06-08T08:07:18.926Z,73600.00
2018-06-08T08:08:18.915Z,73248.00
2018-06-08T08:09:18.950Z,74080.00
2018-06-08T08:10:19.093Z,74144.00
2018-06-08T08:11:19.082Z,76480.00
2018-06-08T08:12:19.070Z,78272.00
2018-06-08T08:13:19.067Z,80320.00
2018-06-08T08:14:19.045Z,82720.00
2018-06-08T08:15:19.034Z,86496.00
2018-06-08T08:16:19.030Z,85920.00
2018-06-08T08:17:18.809Z,84000.00
2018-06-08T08:18:19.001Z,84096.00
2018-06-08T08:19:21.661Z,84896.00
2018-06-08T08:20:18.777Z,85184.00
2018-06-08T08:21:18.968Z,87584.00
2018-06-08T08:22:18.752Z,88960.00
2018-06-08T08:23:18.744Z,88352.00
2018-06-08T08:24:18.931Z,87904.00
2018-06-08T08:25:18.722Z,86816.00
2018-06-08T08:26:18.910Z,89536.00
2018-06-08T08:27:18.698Z,91232.00
2018-06-08T08:28:18.687Z,89248.00
2018-06-08T08:29:18.899Z,88672.00
2018-06-08T08:30:18.667Z,87616.00
2018-06-08T08:31:18.654Z,88192.00
2018-06-08T08:32:18.644Z,87648.00
2018-06-08T08:33:18.836Z,90528.00
2018-06-08T08:34:18.728Z,92448.00
2018-06-08T08:35:19.015Z,88800.00
2018-06-08T08:36:18.603Z,87936.00
2018-06-08T08:37:18.601Z,90976.00
2018-06-08T08:38:18.788Z,91360.00
2018-06-08T08:39:18.573Z,90400.00
2018-06-08T08:40:18.765Z,94144.00
2018-06-08T08:41:18.755Z,92896.00
2018-06-08T08:42:18.745Z,90048.00
2018-06-08T08:43:18.737Z,85600.00
2018-06-08T08:44:18.726Z,80992.00
2018-06-08T08:45:18.514Z,78912.00
2018-06-08T08:46:18.512Z,76672.00
2018-06-08T08:47:18.548Z,77088.00
2018-06-08T08:48:18.487Z,82272.00
2018-06-08T08:49:18.478Z,82592.00
2018-06-08T08:50:18.465Z,80832.00
2018-06-08T08:51:18.456Z,73632.00
2018-06-08T08:52:18.447Z,77344.00
2018-06-08T08:53:18.435Z,65184.00
2018-06-08T08:54:18.434Z,67104.00
2018-06-08T08:55:18.415Z,64512.00
2018-06-08T08:56:18.405Z,57216.00
2018-06-08T08:57:18.396Z,62176.00
2018-06-08T08:58:18.384Z,65440.00
2018-06-08T08:59:18.373Z,67392.00
2018-06-08T09:00:18.374Z,76672.00
2018-06-08T09:01:18.355Z,77120.00
2018-06-08T09:02:18.342Z,77408.00
2018-06-08T09:03:18.333Z,80704.00
2018-06-08T09:04:18.322Z,77344.00
2018-06-08T09:05:18.311Z,83968.00
2018-06-08T09:06:18.302Z,96064.00
2018-06-08T09:07:18.288Z,100576.00
2018-06-08T09:08:18.284Z,97888.00
2018-06-08T09:09:18.279Z,99872.00
2018-06-08T09:10:18.256Z,101760.00
2018-06-08T09:11:18.245Z,102624.00
2018-06-08T09:12:18.236Z,98176.00
2018-06-08T09:13:18.225Z,97472.00
2018-06-08T09:14:18.216Z,101472.00
2018-06-08T09:15:18.209Z,100544.00
2018-06-08T09:16:18.197Z,95616.00
2018-06-08T09:17:18.185Z,96128.00
2018-06-08T09:18:18.175Z,99840.00
2018-06-08T09:19:18.166Z,99680.00
2018-06-08T09:20:18.156Z,99872.00
2018-06-08T09:21:18.160Z,101984.00
2018-06-08T09:22:18.141Z,102464.00
2018-06-08T09:23:18.128Z,102208.00
2018-06-08T09:24:18.121Z,101120.00
2018-06-08T09:25:18.111Z,100256.00
2018-06-08T09:26:18.110Z,100896.00
2018-06-08T09:27:18.136Z,100864.00
2018-06-08T09:28:18.089Z,100096.00
2018-06-08T09:29:18.078Z,98336.00
2018-06-08T09:30:18.078Z,96032.00
2018-06-08T09:31:18.075Z,99104.00
2018-06-08T09:32:18.053Z,104512.00
2018-06-08T09:33:18.046Z,102976.00
2018-06-08T09:34:18.239Z,99328.00
2018-06-08T09:35:18.030Z,98368.00
2018-06-08T09:36:18.025Z,96768.00
2018-06-08T09:37:18.023Z,99200.00
2018-06-08T09:38:18.012Z,103328.00
2018-06-08T09:39:18.200Z,103072.00
2018-06-08T09:40:18.993Z,100224.00
2018-06-08T09:41:17.986Z,98464.00
2018-06-08T09:42:17.979Z,98240.00
2018-06-08T09:43:17.968Z,99456.00
2018-06-08T09:44:17.961Z,99808.00
2018-06-08T09:45:17.954Z,98400.00
2018-06-08T09:46:17.984Z,97920.00
2018-06-08T09:47:17.938Z,98528.00
2018-06-08T09:48:18.133Z,97344.00
2018-06-08T09:49:17.925Z,97152.00
2018-06-08T09:50:17.919Z,97504.00
2018-06-08T09:51:17.909Z,98624.00
2018-06-08T09:52:17.905Z,99808.00
2018-06-08T09:53:17.896Z,102048.00
2018-06-08T09:54:17.888Z,98592.00
2018-06-08T09:55:17.883Z,97472.00
2018-06-08T09:56:17.874Z,96544.00
2018-06-08T09:57:17.868Z,96640.00
2018-06-08T09:58:17.860Z,98496.00
2018-06-08T09:59:17.852Z,97376.00
2018-06-08T10:00:17.846Z,98336.00
2018-06-08T10:01:17.838Z,97856.00
2018-06-08T10:02:17.830Z,97280.00
2018-06-08T10:03:17.825Z,97056.00
2018-06-08T10:04:17.816Z,100448.00
2018-06-08T10:05:17.882Z,100128.00
2018-06-08T10:06:17.802Z,98976.00
2018-06-08T10:07:17.801Z,99296.00
2018-06-08T10:08:17.786Z,99968.00
2018-06-08T10:09:17.783Z,101312.00
2018-06-08T10:10:17.772Z,102176.00
2018-06-08T10:11:17.772Z,99456.00
2018-06-08T10:12:17.757Z,96192.00
2018-06-08T10:13:17.749Z,99808.00
2018-06-08T10:14:17.741Z,103680.00
2018-06-08T10:15:17.734Z,102944.00
2018-06-08T10:16:17.727Z,103072.00
2018-06-08T10:17:17.722Z,100288.00
2018-06-08T10:18:17.714Z,99712.00
2018-06-08T10:19:17.705Z,102176.00
2018-06-08T10:20:17.697Z,102496.00
2018-06-08T10:21:17.690Z,102464.00
2018-06-08T10:22:17.683Z,103520.00
2018-06-08T10:23:17.677Z,104032.00
2018-06-08T10:24:17.668Z,103392.00
2018-06-08T10:25:17.660Z,100928.00
2018-06-08T10:26:17.651Z,99136.00
2018-06-08T10:27:17.645Z,100864.00
2018-06-08T10:28:17.683Z,100512.00
2018-06-08T10:29:17.631Z,102752.00
2018-06-08T10:30:17.626Z,102784.00
2018-06-08T10:31:17.615Z,101632.00
2018-06-08T10:32:17.628Z,102624.00
2018-06-08T10:33:17.604Z,101152.00
2018-06-08T10:34:17.595Z,100480.00
2018-06-08T10:35:17.584Z,100608.00
2018-06-08T10:36:17.577Z,99296.00
2018-06-08T10:37:17.570Z,97984.00
2018-06-08T10:38:17.562Z,99424.00
2018-06-08T10:39:17.557Z,102048.00
2018-06-08T10:40:17.547Z,102432.00
2018-06-08T10:41:17.544Z,104224.00
2018-06-08T10:42:17.535Z,105792.00
2018-06-08T10:43:17.530Z,103776.00
2018-06-08T10:44:17.520Z,100544.00
2018-06-08T10:45:17.509Z,102816.00
2018-06-08T10:46:17.501Z,102400.00
2018-06-08T10:47:17.496Z,101568.00
2018-06-08T10:48:17.485Z,103808.00
2018-06-08T10:49:17.478Z,106592.00
2018-06-08T10:50:17.470Z,103456.00
2018-06-08T10:51:17.462Z,104832.00
2018-06-08T10:52:17.454Z,104864.00
2018-06-08T10:53:17.446Z,102848.00
2018-06-08T10:54:17.440Z,103904.00
2018-06-08T10:55:17.431Z,103552.00
2018-06-08T10:56:17.626Z,103040.00
2018-06-08T10:57:17.414Z,99200.00
2018-06-08T10:58:17.406Z,101952.00
2018-06-08T10:59:17.600Z,105504.00
2018-06-08T11:00:17.390Z,102496.00
2018-06-08T11:01:17.589Z,101024.00
2018-06-08T11:02:17.575Z,108192.00
2018-06-08T11:03:17.365Z,104832.00
2018-06-08T11:04:59.723Z,101760.00
2018-06-08T11:05:59.514Z,99104.00
2018-06-08T11:06:59.504Z,98880.00
2018-06-08T11:07:59.698Z,103200.00
2018-06-08T11:08:59.494Z,103840.00
2018-06-08T11:09:59.682Z,102400.00
2018-06-08T11:10:59.475Z,98304.00
2018-06-08T11:11:59.466Z,97824.00
2018-06-08T11:12:59.457Z,101504.00
2018-06-08T11:13:59.449Z,105536.00
2018-06-08T11:14:59.443Z,104192.00
2018-06-08T11:15:59.434Z,104672.00
2018-06-08T11:16:59.430Z,106240.00
2018-06-08T11:17:59.419Z,106752.00
2018-06-08T11:18:59.415Z,107808.00
2018-06-08T11:19:59.404Z,106560.00
2018-06-08T11:20:59.396Z,108672.00
2018-06-08T11:21:59.388Z,108288.00
2018-06-08T11:22:59.381Z,108864.00
2018-06-08T11:23:59.376Z,108160.00
2018-06-08T11:24:59.372Z,110176.00
2018-06-08T11:25:59.369Z,107904.00
2018-06-08T11:26:59.418Z,108512.00
2018-06-08T11:27:59.349Z,105728.00
2018-06-08T11:28:59.341Z,102400.00
2018-06-08T11:29:59.328Z,100000.00
2018-06-08T11:30:59.342Z,104576.00
2018-06-08T11:31:59.319Z,109312.00
2018-06-08T11:32:59.322Z,108448.00
2018-06-08T11:33:59.301Z,107680.00
2018-06-08T11:34:59.293Z,105376.00
2018-06-08T11:35:59.287Z,104320.00
2018-06-08T11:36:59.280Z,103520.00
2018-06-08T11:37:59.276Z,97952.00
2018-06-08T11:38:59.265Z,94016.00
2018-06-08T11:39:59.271Z,95904.00
2018-06-08T11:40:59.255Z,88352.00
2018-06-08T11:41:59.246Z,97440.00
2018-06-08T11:42:59.791Z,96768.00
2018-06-08T11:43:59.235Z,96576.00
2018-06-08T11:44:59.228Z,100384.00
2018-06-08T11:45:59.221Z,98880.00
2018-06-08T11:46:59.214Z,95776.00
2018-06-08T11:47:59.213Z,98624.00
2018-06-08T11:48:59.204Z,104384.00
2018-06-08T11:49:59.196Z,94208.00
2018-06-08T11:50:59.190Z,83488.00
2018-06-08T11:51:59.184Z,97376.00
2018-06-08T11:52:59.178Z,107552.00
2018-06-08T11:53:59.171Z,108672.00
2018-06-08T11:54:59.167Z,109056.00
2018-06-08T11:55:59.161Z,107008.00
2018-06-08T11:56:59.155Z,103968.00
2018-06-08T11:57:59.149Z,99072.00
2018-06-08T11:58:59.144Z,96448.00
2018-06-08T11:59:59.138Z,97088.00
2018-06-08T12:00:59.134Z,90784.00
2018-06-08T12:01:59.131Z,88192.00
2018-06-08T12:02:59.123Z,97504.00
2018-06-08T12:03:59.118Z,95296.00
2018-06-08T12:04:59.115Z,90240.00
2018-06-08T12:05:59.106Z,88128.00
2018-06-08T12:06:59.101Z,95488.00